Airfield :
LOGIN :

Register | Disclaimer

   EN    FR    IT 

 










Legend :    VFR   Marginal VFR   IFR   Intensive IFR   Very Intensive IFR
Visi :
Ceiling :
>= 8 km
>= 3000ft
5 to 8 km
1000 to 3000 ft
1500m to 5 km
500 to 1000 ft
800 to 1500m
200 to 500 ft
< 800m
< 200 ft
Symbols :   Thunderstorms  Fog  Heavy snow  Heavy precipitations  Wind > 20 kt
SIGMETs :     Misc.  Thunderstorms  Icing  Turbulence  Mountain Waves  Volcanic Ashes






- Airport Elevation : 459 ft
- IATA code : CER


LFRC - Cherbourg / Maupertus

CURRENT METAR :
  • 201430Z AUTO 06011KT 030V090 9000 NSC 15/11 Q1012 NOSIG

EXPIRED METARs :
  • 201400Z AUTO 07013KT 040V100 9000 SCT009 15/11 Q1012 TEMPO 06015G25KT BKN009
  • 201330Z AUTO 07013KT 8000 OVC009 14/11 Q1012 TEMPO 06015G25KT BECMG BKN016
  • 201300Z AUTO 07012KT 7000 OVC010 14/11 Q1012 TEMPO 06015G25KT
  • 201230Z AUTO 08012KT 050V120 7000 OVC009 14/11 Q1013 TEMPO 06015G25KT
  • 201200Z AUTO 08013KT 040V110 8000 OVC009 14/11 Q1013 TEMPO 06015G25KT
  • 201130Z AUTO 06012KT 040V100 7000 OVC008 14/12 Q1013 TEMPO 06015G25KT
  • 201100Z AUTO 07012KT 030V090 8000 BKN009 OVC068 14/11 Q1013 TEMPO 06015G25KT
  • 201030Z AUTO 06010KT 8000 BKN010 BKN060 OVC076 14/11 Q1013 TEMPO 06015G25KT
  • 201000Z AUTO 06010KT 030V100 7000 BKN011 OVC068 14/11 Q1013 TEMPO BKN008

TAF TAF LFRC
Valid from the 20 at 15:00 until the 21 at 00:00 UTC


201400Z 2015/2024 05012KT 9999 FEW010
TEMPO 2021/2024 3000 BR



MET'MAP, your aeronautical weather chart ! - Copyright ORBIFLY December 2007 - Disclaimer

ORBIFLY MET'MAP TEAM :

Programming & Development : Alexandra Zaïnal
Original concept : Baudouin d'Aumeries
Technical & hardware support : Manuel Goepfert
Assistance : Marc-Olivier Méhu




SOURCES & CREDITS :

   NOAA